Time;durP1;ratioP1;P1;durP2;ratioP2;P2;SDS_P1;SDS_P2;PMS_P1;PMS_P2;Temp;Humidity;BMP_temperature;BMP_pressure;BME280_temperature;BME280_humidity;BME280_pressure;Samples;Min_cycle;Max_cycle;Signal;HPM_P1;HPM_P2
2022/04/06 00:00:27;;;;;;;14.30;6.25;;;12.50;59.10;;;;;;5073501;28;20021;-72
2022/04/06 00:02:53;;;;;;;12.98;6.97;;;12.50;59.30;;;;;;5073452;28;20025;-73
2022/04/06 00:05:18;;;;;;;17.15;7.05;;;12.50;59.50;;;;;;5073289;28;20020;-71
2022/04/06 00:07:44;;;;;;;16.23;7.78;;;12.50;59.70;;;;;;5073485;28;20028;-71
2022/04/06 00:10:13;;;;;;;16.10;8.07;;;12.50;59.70;;;;;;5073330;28;20074;-71
2022/04/06 00:12:39;;;;;;;15.45;9.35;;;12.50;59.50;;;;;;5073272;28;20048;-71
2022/04/06 00:15:08;;;;;;;18.50;10.23;;;12.40;59.30;;;;;;5073292;28;20032;-72
2022/04/06 00:17:34;;;;;;;16.17;10.23;;;12.40;59.00;;;;;;5073284;28;20040;-73
2022/04/06 00:20:00;;;;;;;20.70;11.52;;;12.30;58.60;;;;;;5073308;28;20026;-72
2022/04/06 00:22:26;;;;;;;24.23;11.45;;;12.30;58.40;;;;;;5073385;28;20024;-70
2022/04/06 00:24:52;;;;;;;24.88;13.45;;;12.10;58.10;;;;;;5071949;28;20066;-72
2022/04/06 00:27:18;;;;;;;24.38;13.60;;;12.10;58.10;;;;;;5073358;28;20033;-71
2022/04/06 00:29:44;;;;;;;21.98;13.20;;;12.00;58.00;;;;;;5073228;28;20045;-72
2022/04/06 00:32:10;;;;;;;27.00;14.85;;;12.00;57.90;;;;;;5073147;28;20051;-70
2022/04/06 00:37:20;;;;;;;23.30;15.15;;;12.00;57.60;;;;;;5072950;28;20044;-71
2022/04/06 00:39:46;;;;;;;23.52;13.55;;;11.90;57.40;;;;;;5072888;28;20020;-70
2022/04/06 00:42:12;;;;;;;23.50;14.30;;;11.80;57.40;;;;;;5072882;28;20455;-71
2022/04/06 00:44:39;;;;;;;28.35;14.35;;;11.80;57.50;;;;;;5072812;28;20017;-72
2022/04/06 00:47:05;;;;;;;22.73;13.95;;;11.80;57.30;;;;;;5072773;28;20056;-72
2022/04/06 00:49:32;;;;;;;21.00;14.02;;;11.80;57.10;;;;;;5073021;28;20021;-71
2022/04/06 00:52:00;;;;;;;18.20;12.57;;;11.80;57.30;;;;;;5073135;28;20060;-71
2022/04/06 00:54:27;;;;;;;21.13;11.45;;;11.70;56.80;;;;;;5072804;28;20028;-71
2022/04/06 00:56:54;;;;;;;19.83;10.80;;;11.60;56.60;;;;;;5072835;28;20028;-70
2022/04/06 00:59:20;;;;;;;18.77;11.18;;;11.60;56.70;;;;;;5072976;28;20031;-71
2022/04/06 01:01:49;;;;;;;17.23;10.55;;;11.50;56.50;;;;;;5072766;28;20102;-70
2022/04/06 01:04:16;;;;;;;16.88;9.70;;;11.50;56.90;;;;;;5072557;28;20385;-70
2022/04/06 01:06:47;;;;;;;14.35;8.82;;;11.50;56.70;;;;;;5071433;28;20104;-72
2022/04/06 01:09:18;;;;;;;14.95;9.05;;;11.50;57.30;;;;;;5072666;28;20024;-72
2022/04/06 01:11:48;;;;;;;14.13;8.38;;;11.40;56.70;;;;;;5072714;28;20044;-70
2022/04/06 01:14:14;;;;;;;13.30;7.65;;;11.40;56.70;;;;;;5072519;28;20369;-70
2022/04/06 01:16:41;;;;;;;12.95;7.47;;;11.40;56.80;;;;;;5072405;28;20111;-70
2022/04/06 01:19:07;;;;;;;11.52;6.90;;;11.30;56.90;;;;;;5072515;28;20048;-70
2022/04/06 01:21:33;;;;;;;11.52;6.18;;;11.30;56.90;;;;;;5072470;28;20027;-69
2022/04/06 01:23:59;;;;;;;14.98;5.78;;;11.20;56.90;;;;;;5072406;28;20047;-71
2022/04/06 01:26:25;;;;;;;11.90;6.78;;;11.20;57.30;;;;;;5072474;28;20028;-71
2022/04/06 01:28:51;;;;;;;12.32;6.25;;;11.20;57.30;;;;;;5072314;28;20020;-69
2022/04/06 01:31:17;;;;;;;12.63;5.93;;;11.20;57.40;;;;;;5072328;28;20024;-70
2022/04/06 01:33:43;;;;;;;11.80;6.13;;;11.20;57.60;;;;;;5072555;28;20029;-71
2022/04/06 01:36:09;;;;;;;9.70;5.75;;;11.20;57.70;;;;;;5072349;28;20024;-70
2022/04/06 01:38:35;;;;;;;13.60;6.07;;;11.20;57.50;;;;;;5072363;28;20345;-71
2022/04/06 01:41:02;;;;;;;12.73;6.18;;;11.20;57.80;;;;;;5072625;28;20028;-71
2022/04/06 01:43:27;;;;;;;13.63;5.70;;;11.30;57.80;;;;;;5070980;28;20358;-71
2022/04/06 01:45:54;;;;;;;9.48;5.60;;;11.30;58.40;;;;;;5072277;28;20040;-69
2022/04/06 01:48:20;;;;;;;8.32;5.03;;;11.30;57.90;;;;;;5072631;28;20032;-70
2022/04/06 01:53:31;;;;;;;9.68;5.57;;;11.30;58.50;;;;;;5072541;28;20051;-71
2022/04/06 01:55:57;;;;;;;9.43;5.55;;;11.20;58.00;;;;;;5075654;28;20455;-71
2022/04/06 01:58:23;;;;;;;10.25;5.65;;;11.30;58.10;;;;;;5075843;28;20025;-71
2022/04/06 02:00:49;;;;;;;10.88;6.50;;;11.20;58.40;;;;;;5075966;28;20020;-72
2022/04/06 02:03:16;;;;;;;9.95;6.40;;;11.10;58.80;;;;;;5075700;28;20436;-70
2022/04/06 02:05:42;;;;;;;13.45;6.32;;;11.00;59.40;;;;;;5075814;28;20393;-71
2022/04/06 02:08:08;;;;;;;10.30;7.22;;;11.00;60.20;;;;;;5075783;28;20078;-71
2022/04/06 02:10:34;;;;;;;13.65;6.82;;;10.90;60.50;;;;;;5075940;28;20036;-70
2022/04/06 02:13:02;;;;;;;14.00;7.38;;;10.90;61.40;;;;;;5075576;28;20473;-71
2022/04/06 02:15:27;;;;;;;12.68;7.60;;;10.80;61.90;;;;;;5075474;28;20028;-72
2022/04/06 02:17:54;;;;;;;10.93;6.78;;;10.80;62.30;;;;;;5075387;28;20036;-71
2022/04/06 02:20:20;;;;;;;13.85;7.38;;;10.80;63.00;;;;;;5075374;28;20107;-70
2022/04/06 02:22:46;;;;;;;13.10;7.07;;;10.80;63.50;;;;;;5075293;28;20099;-72
2022/04/06 02:25:12;;;;;;;13.65;7.30;;;10.70;63.20;;;;;;5075024;28;20017;-70
2022/04/06 02:27:49;;;;;;;11.82;6.93;;;10.80;64.40;;;;;;5074959;28;20029;-71
2022/04/06 02:30:16;;;;;;;13.15;6.40;;;10.80;64.00;;;;;;5074957;28;20445;-70
2022/04/06 02:32:42;;;;;;;12.95;6.80;;;10.80;63.90;;;;;;5074981;28;20056;-72
2022/04/06 02:35:09;;;;;;;13.07;6.55;;;10.80;64.10;;;;;;5074987;28;20107;-72
2022/04/06 02:37:35;;;;;;;12.25;6.25;;;10.80;64.00;;;;;;5074814;28;20040;-70
2022/04/06 02:40:01;;;;;;;14.48;6.85;;;10.80;63.80;;;;;;5073541;28;20381;-71
2022/04/06 02:42:26;;;;;;;9.43;6.38;;;10.90;64.60;;;;;;5073607;28;20366;-71
2022/04/06 02:44:52;;;;;;;10.90;5.82;;;10.90;64.40;;;;;;5074800;28;20031;-71
2022/04/06 02:47:18;;;;;;;12.77;6.40;;;10.90;64.10;;;;;;5074842;28;20117;-69
2022/04/06 02:49:43;;;;;;;9.18;5.20;;;10.90;63.60;;;;;;5074755;28;20024;-70
2022/04/06 02:52:09;;;;;;;11.27;5.80;;;10.90;63.70;;;;;;5074807;28;20033;-69
2022/04/06 02:54:35;;;;;;;10.73;5.65;;;10.90;63.60;;;;;;5074660;28;20074;-70
2022/04/06 02:57:01;;;;;;;10.20;6.10;;;10.90;63.70;;;;;;5056644;28;20041;-70
2022/04/06 02:59:26;;;;;;;9.63;6.15;;;10.90;63.60;;;;;;5074810;28;20016;-69
2022/04/06 03:01:52;;;;;;;11.82;6.63;;;10.90;63.60;;;;;;5074556;28;20493;-71
2022/04/06 03:04:18;;;;;;;9.85;6.03;;;10.90;63.90;;;;;;5074353;28;20020;-71
2022/04/06 03:06:43;;;;;;;15.02;6.68;;;10.90;64.00;;;;;;5073563;28;20031;-70
2022/04/06 03:09:09;;;;;;;15.13;5.80;;;10.90;64.10;;;;;;5074427;28;20028;-71
2022/04/06 03:11:36;;;;;;;11.63;6.07;;;10.80;64.20;;;;;;5072998;28;20040;-73
2022/04/06 03:14:01;;;;;;;10.98;6.65;;;10.80;64.40;;;;;;5074066;28;20382;-73
2022/04/06 03:16:27;;;;;;;12.73;6.45;;;10.80;64.80;;;;;;5074128;28;20025;-70
2022/04/06 03:18:53;;;;;;;14.32;5.50;;;10.80;64.80;;;;;;5074289;28;20037;-71
2022/04/06 03:21:19;;;;;;;12.10;5.40;;;10.80;64.90;;;;;;5074240;28;20571;-70
2022/04/06 03:23:45;;;;;;;11.02;5.40;;;10.80;64.60;;;;;;5073934;28;20032;-69
2022/04/06 03:26:11;;;;;;;17.35;5.90;;;10.70;64.40;;;;;;5074041;28;20055;-70
2022/04/06 03:28:38;;;;;;;9.73;6.28;;;10.70;64.60;;;;;;5074034;28;20096;-71
2022/04/06 03:31:05;;;;;;;11.13;6.25;;;10.70;64.70;;;;;;5074087;28;20037;-70
2022/04/06 03:33:31;;;;;;;9.15;5.35;;;10.70;64.60;;;;;;5073988;28;20024;-70
2022/04/06 03:35:57;;;;;;;10.35;5.85;;;10.60;64.80;;;;;;5073955;28;20544;-72
2022/04/06 03:38:22;;;;;;;9.25;6.13;;;10.60;64.70;;;;;;5073732;28;20108;-70
2022/04/06 03:40:48;;;;;;;11.45;5.80;;;10.60;65.20;;;;;;5073958;28;20035;-70
2022/04/06 03:43:14;;;;;;;11.85;6.30;;;10.60;65.30;;;;;;5072480;28;20033;-70
2022/04/06 03:45:40;;;;;;;12.00;6.68;;;10.60;65.70;;;;;;5073628;28;20086;-69
2022/04/06 03:48:06;;;;;;;11.25;6.00;;;10.60;65.60;;;;;;5073584;28;20032;-69
2022/04/06 03:50:32;;;;;;;11.18;5.80;;;10.60;65.90;;;;;;5073365;28;20480;-70
2022/04/06 03:52:58;;;;;;;11.75;6.20;;;10.60;66.20;;;;;;5073504;28;20032;-69
2022/04/06 03:55:23;;;;;;;10.65;6.10;;;10.60;65.90;;;;;;5073428;28;20025;-70
2022/04/06 03:57:50;;;;;;;10.60;6.15;;;10.60;66.10;;;;;;5073341;28;20470;-70
2022/04/06 04:00:16;;;;;;;13.32;6.55;;;10.60;66.20;;;;;;5073504;28;20016;-72
2022/04/06 04:02:41;;;;;;;14.00;6.72;;;10.60;66.20;;;;;;5073565;28;20039;-70
2022/04/06 04:05:07;;;;;;;9.57;5.78;;;10.60;66.80;;;;;;5073473;28;20334;-72
2022/04/06 04:07:37;;;;;;;11.45;7.15;;;10.60;66.70;;;;;;5073269;28;20020;-73
2022/04/06 04:10:08;;;;;;;12.25;6.47;;;10.60;66.60;;;;;;5073539;28;20029;-72
2022/04/06 04:12:34;;;;;;;12.05;6.25;;;10.50;66.40;;;;;;5073385;28;20034;-70
2022/04/06 04:15:01;;;;;;;11.45;5.65;;;10.50;67.00;;;;;;5073668;28;20029;-69
2022/04/06 04:17:27;;;;;;;10.98;5.80;;;10.50;67.60;;;;;;5072818;28;20120;-71
2022/04/06 04:19:52;;;;;;;9.18;5.55;;;10.50;67.60;;;;;;5073122;28;20067;-70
2022/04/06 04:22:18;;;;;;;11.63;6.82;;;10.40;67.20;;;;;;5073249;28;20496;-71
2022/04/06 04:24:44;;;;;;;10.85;6.25;;;10.40;67.20;;;;;;5073145;28;20136;-72
2022/04/06 04:27:09;;;;;;;16.70;7.05;;;10.50;67.30;;;;;;5073205;28;20024;-72
2022/04/06 04:29:35;;;;;;;12.73;6.32;;;10.50;67.30;;;;;;5073227;28;20032;-71
2022/04/06 04:32:01;;;;;;;10.30;6.43;;;10.50;66.80;;;;;;5073072;28;20024;-72
2022/04/06 04:34:26;;;;;;;13.82;6.47;;;10.40;67.30;;;;;;5073021;28;20377;-71
2022/04/06 04:36:53;;;;;;;14.63;6.18;;;10.50;67.40;;;;;;5072839;28;20488;-71
2022/04/06 04:39:19;;;;;;;11.90;6.13;;;10.40;67.50;;;;;;5071769;28;20028;-72
2022/04/06 04:41:46;;;;;;;18.05;6.75;;;10.40;67.30;;;;;;5073139;28;20374;-72
2022/04/06 04:44:12;;;;;;;12.35;6.55;;;10.40;67.70;;;;;;5072913;28;20025;-70
2022/04/06 04:46:38;;;;;;;11.98;7.43;;;10.40;67.90;;;;;;5072805;28;20048;-71
2022/04/06 04:49:04;;;;;;;11.18;6.20;;;10.40;67.80;;;;;;5072877;28;20116;-70
2022/04/06 04:51:30;;;;;;;11.10;6.72;;;10.30;67.90;;;;;;5072740;28;20059;-71
2022/04/06 04:53:57;;;;;;;12.75;6.57;;;10.30;68.20;;;;;;5072776;28;20035;-71
2022/04/06 04:56:24;;;;;;;10.65;6.45;;;10.30;67.90;;;;;;5072788;28;20477;-71
2022/04/06 04:58:51;;;;;;;13.98;6.13;;;10.20;67.80;;;;;;5072814;28;20028;-71
2022/04/06 05:01:17;;;;;;;13.00;6.50;;;10.20;68.70;;;;;;5072814;28;20095;-71
2022/04/06 05:03:43;;;;;;;11.10;7.20;;;10.10;68.20;;;;;;5072631;28;20048;-71
2022/04/06 05:06:09;;;;;;;12.90;7.32;;;10.10;68.30;;;;;;5072687;28;20056;-71
2022/04/06 05:08:34;;;;;;;12.60;6.78;;;10.10;68.60;;;;;;5071473;28;20023;-71
2022/04/06 05:11:00;;;;;;;13.45;6.90;;;10.10;68.40;;;;;;5071350;28;20039;-71
2022/04/06 05:13:26;;;;;;;11.40;6.88;;;10.20;68.40;;;;;;5072675;28;20020;-71
2022/04/06 05:15:51;;;;;;;11.05;6.65;;;10.20;68.10;;;;;;5072523;28;20016;-71
2022/04/06 05:18:17;;;;;;;13.52;6.47;;;10.30;68.00;;;;;;5072460;28;20032;-73
2022/04/06 05:20:44;;;;;;;12.70;6.85;;;10.30;68.00;;;;;;5072502;28;20032;-70
2022/04/06 05:23:10;;;;;;;10.10;6.47;;;10.30;67.30;;;;;;5072489;28;20497;-69
2022/04/06 05:25:36;;;;;;;11.40;6.22;;;10.30;67.30;;;;;;5072371;28;20047;-70
2022/04/06 05:28:02;;;;;;;9.50;5.88;;;10.30;67.60;;;;;;5072363;28;20044;-71
2022/04/06 05:30:29;;;;;;;14.68;6.20;;;10.30;67.50;;;;;;5075389;28;20082;-70
2022/04/06 05:32:56;;;;;;;13.45;6.82;;;10.40;67.50;;;;;;5076383;28;20074;-71
2022/04/06 05:35:25;;;;;;;9.10;5.70;;;10.50;67.20;;;;;;5075879;28;20029;-69
2022/04/06 05:37:51;;;;;;;12.07;7.00;;;10.50;67.30;;;;;;5075937;28;20040;-71
2022/04/06 05:40:19;;;;;;;15.82;6.82;;;10.60;66.90;;;;;;5076002;28;20024;-71
2022/04/06 05:42:44;;;;;;;12.35;6.60;;;10.60;66.60;;;;;;5076075;28;20020;-73
2022/04/06 05:45:11;;;;;;;9.65;6.20;;;10.70;66.40;;;;;;5075789;28;20047;-72
2022/04/06 05:47:37;;;;;;;12.68;6.50;;;10.80;66.20;;;;;;5075847;28;20105;-69
2022/04/06 05:50:05;;;;;;;15.48;6.57;;;10.90;65.70;;;;;;5075768;28;20025;-70
2022/04/06 05:52:31;;;;;;;14.38;6.70;;;10.90;65.50;;;;;;5090434;28;20024;-71
2022/04/06 05:54:57;;;;;;;11.90;6.15;;;11.00;65.10;;;;;;5094433;28;20032;-72
2022/04/06 05:57:23;;;;;;;16.33;6.50;;;11.00;65.20;;;;;;5091533;28;20504;-71
2022/04/06 05:59:49;;;;;;;16.52;6.93;;;11.10;64.90;;;;;;5076062;28;20059;-71
2022/04/06 06:02:14;;;;;;;19.67;6.35;;;11.30;64.50;;;;;;5075994;28;20032;-73
2022/04/06 06:04:41;;;;;;;12.63;7.05;;;11.40;63.80;;;;;;5081227;28;20473;-74
2022/04/06 06:07:07;;;;;;;13.93;7.07;;;11.50;63.80;;;;;;5075967;28;20029;-73
2022/04/06 06:09:36;;;;;;;16.27;6.63;;;11.60;63.70;;;;;;5076027;28;20142;-75
2022/04/06 06:12:03;;;;;;;14.90;6.25;;;11.70;63.50;;;;;;5075706;28;20094;-78
2022/04/06 06:14:29;;;;;;;14.00;7.00;;;11.80;63.20;;;;;;5075536;28;20446;-76
2022/04/06 06:16:55;;;;;;;18.02;7.50;;;12.00;62.80;;;;;;5075417;28;20116;-77
2022/04/06 06:19:21;;;;;;;14.48;7.25;;;12.00;62.40;;;;;;5075850;28;20366;-75
2022/04/06 06:21:47;;;;;;;14.27;6.80;;;12.10;62.20;;;;;;5075768;28;20384;-75
2022/04/06 06:24:13;;;;;;;24.73;7.72;;;12.10;61.90;;;;;;5074536;28;20021;-74
2022/04/06 06:26:43;;;;;;;15.63;7.05;;;12.20;61.80;;;;;;5075671;28;20024;-75
2022/04/06 06:29:09;;;;;;;17.45;7.90;;;12.10;61.90;;;;;;5075599;28;20036;-75
2022/04/06 06:31:35;;;;;;;26.85;8.18;;;12.10;61.60;;;;;;5074273;28;20175;-76
2022/04/06 06:34:01;;;;;;;20.30;7.57;;;12.10;61.80;;;;;;5075447;28;20028;-74
2022/04/06 06:36:27;;;;;;;15.93;7.57;;;12.30;61.60;;;;;;5075311;28;20029;-75
2022/04/06 06:38:54;;;;;;;11.88;6.95;;;12.40;61.00;;;;;;5075601;28;20358;-77
2022/04/06 06:41:20;;;;;;;14.68;8.02;;;12.50;60.40;;;;;;5075168;28;20020;-76
2022/04/06 06:43:48;;;;;;;12.38;6.78;;;12.60;60.20;;;;;;5075071;28;20025;-75
2022/04/06 06:46:19;;;;;;;19.45;6.85;;;12.80;60.00;;;;;;5074682;28;20468;-74
2022/04/06 06:48:45;;;;;;;12.60;7.30;;;12.90;59.70;;;;;;5073649;28;20032;-75
2022/04/06 06:51:12;;;;;;;18.08;8.35;;;12.80;59.50;;;;;;5075124;28;20510;-76
2022/04/06 06:53:37;;;;;;;20.20;8.50;;;12.80;59.50;;;;;;5076192;28;20036;-76
2022/04/06 06:56:03;;;;;;;23.17;8.00;;;12.80;60.30;;;;;;5092167;28;20020;-73
2022/04/06 06:58:29;;;;;;;21.50;9.18;;;12.90;59.60;;;;;;5092223;28;20032;-75
2022/04/06 07:00:55;;;;;;;15.48;8.15;;;13.10;59.50;;;;;;5074741;28;20016;-71
2022/04/06 07:03:21;;;;;;;13.75;7.82;;;13.40;59.10;;;;;;5074693;28;20527;-76
2022/04/06 07:05:47;;;;;;;12.85;6.90;;;13.60;58.70;;;;;;5074563;28;20024;-76
2022/04/06 07:08:13;;;;;;;17.27;8.35;;;13.80;58.30;;;;;;5074615;28;20508;-75
2022/04/06 07:10:43;;;;;;;16.73;8.25;;;14.00;57.40;;;;;;5074404;28;20024;-72
2022/04/06 07:13:11;;;;;;;17.55;9.02;;;14.30;57.50;;;;;;5074688;28;20016;-77
2022/04/06 07:15:37;;;;;;;16.55;8.07;;;14.50;56.80;;;;;;5074231;28;20025;-75
2022/04/06 07:18:03;;;;;;;14.95;7.50;;;14.60;56.10;;;;;;5074653;28;20033;-75
2022/04/06 07:20:32;;;;;;;13.32;7.50;;;14.70;55.50;;;;;;5074348;28;20431;-74
2022/04/06 07:22:58;;;;;;;16.15;8.82;;;14.80;55.50;;;;;;5074395;28;20066;-74
2022/04/06 07:25:23;;;;;;;15.88;8.00;;;15.00;54.60;;;;;;5074376;28;20466;-74
2022/04/06 07:27:49;;;;;;;10.90;8.05;;;15.10;53.40;;;;;;5074053;28;20492;-76
2022/04/06 07:30:15;;;;;;;24.40;8.88;;;15.40;53.40;;;;;;5074520;28;20097;-71
2022/04/06 07:32:41;;;;;;;16.90;8.50;;;15.50;52.90;;;;;;5073358;28;20120;-71
2022/04/06 07:35:07;;;;;;;18.73;8.50;;;15.70;52.40;;;;;;5073981;28;20017;-73
2022/04/06 07:37:47;;;;;;;14.77;7.95;;;15.60;52.10;;;;;;5072938;28;20443;-72
2022/04/06 07:40:15;;;;;;;23.77;9.38;;;15.60;51.80;;;;;;5074057;28;20033;-71
2022/04/06 07:42:41;;;;;;;17.05;8.00;;;15.60;51.90;;;;;;5074221;28;20045;-71
2022/04/06 07:45:10;;;;;;;20.25;9.20;;;15.50;51.90;;;;;;5072784;28;20052;-75
2022/04/06 07:47:37;;;;;;;17.50;8.75;;;15.50;52.10;;;;;;5074209;28;20036;-74
2022/04/06 07:50:05;;;;;;;19.08;9.07;;;15.40;52.10;;;;;;5074945;28;20025;-74
2022/04/06 07:52:31;;;;;;;17.83;9.38;;;15.40;52.30;;;;;;5073612;28;20078;-76
2022/04/06 07:54:57;;;;;;;17.95;9.52;;;15.40;52.20;;;;;;5073645;28;20017;-75
2022/04/06 07:57:27;;;;;;;17.58;9.95;;;15.50;52.20;;;;;;5073931;28;20101;-76
2022/04/06 07:59:54;;;;;;;16.58;8.85;;;15.50;51.90;;;;;;5073294;28;20461;-75
2022/04/06 08:02:20;;;;;;;16.15;9.13;;;15.60;51.90;;;;;;5073784;28;20028;-74
2022/04/06 08:04:46;;;;;;;15.50;8.48;;;15.60;52.00;;;;;;5071865;28;20127;-75
2022/04/06 08:07:12;;;;;;;24.38;9.25;;;15.60;52.40;;;;;;5073207;28;20575;-73
2022/04/06 08:09:38;;;;;;;18.08;9.25;;;15.70;52.60;;;;;;5073784;28;20097;-78
2022/04/06 08:12:04;;;;;;;20.35;8.30;;;15.80;52.40;;;;;;5071956;28;20078;-75
2022/04/06 08:14:30;;;;;;;19.13;7.50;;;15.80;52.40;;;;;;5073128;28;20048;-75
2022/04/06 08:16:56;;;;;;;14.98;7.97;;;15.90;52.40;;;;;;5073336;28;20039;-76
2022/04/06 08:19:23;;;;;;;15.38;8.48;;;15.90;52.50;;;;;;5073174;28;20028;-77
2022/04/06 08:21:51;;;;;;;20.83;7.68;;;15.90;52.70;;;;;;5072944;28;20036;-74
2022/04/06 08:24:17;;;;;;;17.83;8.13;;;16.00;52.90;;;;;;5073209;28;20113;-74
2022/04/06 08:26:43;;;;;;;16.35;8.77;;;16.00;53.10;;;;;;5072975;28;20477;-74
2022/04/06 08:29:08;;;;;;;20.40;10.00;;;16.00;53.30;;;;;;5071965;28;20044;-74
2022/04/06 08:31:34;;;;;;;19.15;12.15;;;16.00;53.60;;;;;;5071760;28;20389;-75
2022/04/06 08:34:00;;;;;;;21.42;12.48;;;16.00;53.80;;;;;;5073079;28;20488;-76
2022/04/06 08:36:26;;;;;;;22.05;13.65;;;16.00;53.60;;;;;;5071760;28;20039;-74
2022/04/06 08:38:52;;;;;;;24.80;13.15;;;16.00;54.00;;;;;;5073242;28;20028;-74
2022/04/06 08:41:20;;;;;;;21.65;11.48;;;15.90;54.20;;;;;;5073033;28;20042;-76
2022/04/06 08:43:46;;;;;;;22.13;9.88;;;15.90;54.40;;;;;;5073090;28;20082;-73
2022/04/06 08:46:12;;;;;;;23.52;10.13;;;15.90;54.70;;;;;;5072950;28;20052;-77
2022/04/06 08:48:38;;;;;;;26.10;8.23;;;15.90;55.00;;;;;;5073282;28;20483;-77
2022/04/06 08:51:08;;;;;;;15.90;7.90;;;15.90;55.30;;;;;;5073161;28;20021;-75
2022/04/06 08:53:38;;;;;;;13.07;8.02;;;15.90;55.60;;;;;;5073528;28;20032;-76
2022/04/06 08:56:04;;;;;;;22.33;8.38;;;15.90;55.90;;;;;;5072725;28;20059;-75
2022/04/06 08:58:30;;;;;;;14.50;7.47;;;15.90;56.50;;;;;;5072810;28;20052;-75
2022/04/06 09:00:56;;;;;;;20.10;9.27;;;15.90;56.70;;;;;;5072969;28;20060;-75
2022/04/06 09:03:22;;;;;;;20.30;8.60;;;15.90;57.10;;;;;;5072917;28;20029;-74
2022/04/06 09:06:04;;;;;;;17.60;8.38;;;15.90;57.50;;;;;;5076120;28;20373;-74
2022/04/06 09:08:35;;;;;;;18.65;8.20;;;16.00;57.40;;;;;;5076838;28;20107;-74
2022/04/06 09:11:18;;;;;;;17.80;7.13;;;16.00;57.40;;;;;;5076928;28;20035;-74
2022/04/06 09:13:46;;;;;;;18.27;6.63;;;16.10;57.60;;;;;;5076830;28;20020;-73
2022/04/06 09:16:15;;;;;;;12.10;6.38;;;16.20;57.00;;;;;;5077030;28;20024;-75
2022/04/06 09:18:48;;;;;;;11.38;6.28;;;16.30;56.30;;;;;;5076612;28;20055;-74
2022/04/06 09:21:18;;;;;;;16.30;6.13;;;16.30;56.00;;;;;;5076478;28;20077;-74
2022/04/06 09:23:48;;;;;;;19.10;5.72;;;16.30;55.80;;;;;;5075216;28;20063;-78
2022/04/06 09:26:17;;;;;;;9.55;5.13;;;16.40;54.90;;;;;;5076334;28;20021;-73
2022/04/06 09:28:45;;;;;;;9.70;4.80;;;16.30;54.30;;;;;;5076305;28;20021;-76
2022/04/06 09:31:16;;;;;;;10.13;5.40;;;16.30;54.30;;;;;;5076398;28;20027;-73
2022/04/06 09:33:43;;;;;;;16.95;5.93;;;16.20;54.40;;;;;;5076251;28;20072;-73
2022/04/06 09:36:20;;;;;;;15.27;6.30;;;16.20;54.90;;;;;;5076188;28;20025;-76
2022/04/06 09:38:48;;;;;;;17.05;6.65;;;16.10;55.40;;;;;;5076085;28;20036;-74
2022/04/06 09:41:15;;;;;;;18.40;6.55;;;16.00;55.40;;;;;;5075888;28;20024;-75
2022/04/06 09:43:44;;;;;;;22.33;6.07;;;15.90;56.00;;;;;;5076306;28;20020;-76
2022/04/06 09:49:14;;;;;;;16.85;6.28;;;15.90;55.70;;;;;;5076325;28;20109;-75
2022/04/06 09:51:42;;;;;;;16.20;6.18;;;16.00;55.40;;;;;;5075933;28;20025;-76
2022/04/06 09:54:12;;;;;;;15.70;5.45;;;15.90;55.00;;;;;;5075967;28;20036;-76
2022/04/06 09:56:38;;;;;;;14.45;4.95;;;15.90;54.60;;;;;;5075913;28;20041;-75
2022/04/06 09:59:04;;;;;;;14.00;5.35;;;15.90;54.20;;;;;;5075540;28;20039;-76
2022/04/06 10:01:33;;;;;;;20.70;5.78;;;15.90;54.40;;;;;;5075713;28;20017;-77
2022/04/06 10:04:11;;;;;;;22.35;6.95;;;15.90;54.00;;;;;;5074141;28;20525;-74
2022/04/06 10:06:39;;;;;;;18.23;6.45;;;15.90;53.80;;;;;;5075523;28;20104;-76
2022/04/06 10:09:10;;;;;;;28.38;6.90;;;15.80;53.60;;;;;;5075954;28;20104;-73
2022/04/06 10:11:38;;;;;;;17.52;6.63;;;15.90;53.80;;;;;;5075488;28;20028;-76
2022/04/06 10:14:09;;;;;;;23.08;6.45;;;15.90;53.90;;;;;;5075311;28;20028;-76
2022/04/06 10:16:36;;;;;;;28.33;9.10;;;15.90;53.90;;;;;;5074720;28;20040;-75
2022/04/06 10:19:05;;;;;;;21.98;6.85;;;16.00;54.20;;;;;;5075387;28;20495;-74
2022/04/06 10:21:53;;;;;;;17.65;6.32;;;16.00;54.30;;;;;;5075399;28;20024;-76
2022/04/06 10:24:46;;;;;;;19.13;6.70;;;15.90;55.00;;;;;;5075362;28;20025;-74
2022/04/06 10:27:43;;;;;;;15.23;6.13;;;15.90;55.20;;;;;;5075338;28;20063;-72
2022/04/06 10:30:23;;;;;;;23.73;7.05;;;15.80;55.60;;;;;;5074408;28;20060;-74
2022/04/06 10:32:51;;;;;;;30.35;8.00;;;15.80;56.10;;;;;;5075112;28;20489;-75
2022/04/06 10:35:18;;;;;;;23.30;6.68;;;15.80;56.00;;;;;;5074874;28;20561;-75
2022/04/06 10:38:09;;;;;;;23.90;9.70;;;15.70;56.20;;;;;;5074995;28;20115;-73
2022/04/06 10:40:47;;;;;;;29.60;14.57;;;15.70;56.70;;;;;;5073067;28;20105;-73
2022/04/06 10:43:34;;;;;;;21.15;12.82;;;15.80;57.20;;;;;;5075293;28;20031;-76
2022/04/06 10:46:00;;;;;;;16.35;7.93;;;15.80;57.20;;;;;;5075097;28;20055;-72
2022/04/06 10:48:26;;;;;;;15.52;7.60;;;15.80;57.80;;;;;;5074813;28;20024;-74
2022/04/06 10:50:53;;;;;;;12.65;7.10;;;15.90;58.10;;;;;;5074594;28;20024;-76
2022/04/06 10:53:21;;;;;;;14.68;6.70;;;16.10;58.50;;;;;;5073345;28;20078;-73
2022/04/06 10:56:12;;;;;;;20.08;6.90;;;16.20;58.70;;;;;;5074532;28;20060;-75
2022/04/06 10:58:55;;;;;;;21.77;5.75;;;16.30;58.70;;;;;;5074923;28;20112;-76
2022/04/06 11:01:35;;;;;;;13.90;4.05;;;16.40;57.10;;;;;;5074902;28;20024;-73
2022/04/06 11:04:06;;;;;;;13.98;4.18;;;16.40;54.80;;;;;;5074764;28;20024;-75
2022/04/06 11:06:41;;;;;;;9.32;3.60;;;16.40;53.70;;;;;;5074630;28;20365;-76
2022/04/06 11:12:11;;;;;;;6.13;2.90;;;16.40;53.30;;;;;;5074123;28;20031;-74
2022/04/06 11:14:38;;;;;;;7.85;3.35;;;16.40;52.60;;;;;;5074748;28;20086;-76
2022/04/06 11:17:42;;;;;;;13.90;3.60;;;16.50;53.10;;;;;;5075066;28;20056;-75
2022/04/06 11:20:11;;;;;;;8.80;4.25;;;16.60;54.30;;;;;;5075130;28;20024;-74
2022/04/06 11:22:38;;;;;;;7.93;3.53;;;16.80;54.20;;;;;;5076516;28;20170;-75
2022/04/06 11:25:10;;;;;;;8.75;3.75;;;16.90;55.00;;;;;;5086317;28;20099;-75
2022/04/06 11:27:37;;;;;;;8.13;3.60;;;17.10;54.70;;;;;;5080550;28;20016;-76
2022/04/06 11:30:07;;;;;;;10.27;3.72;;;17.20;55.50;;;;;;5075995;28;20054;-76
2022/04/06 11:32:34;;;;;;;11.30;4.15;;;17.10;56.20;;;;;;5075174;28;20099;-76
2022/04/06 11:35:09;;;;;;;9.05;4.15;;;17.10;56.40;;;;;;5075235;28;20021;-76
2022/04/06 11:37:40;;;;;;;9.90;4.57;;;17.30;57.30;;;;;;5074661;28;20143;-74
2022/04/06 11:40:07;;;;;;;10.77;4.80;;;17.40;57.50;;;;;;5073928;28;20032;-77
2022/04/06 11:42:33;;;;;;;6.95;3.42;;;17.40;57.30;;;;;;5073938;28;20020;-77
2022/04/06 11:44:59;;;;;;;6.82;3.42;;;17.40;55.40;;;;;;5073981;28;20029;-75
2022/04/06 11:47:35;;;;;;;7.32;3.70;;;17.40;55.90;;;;;;5073790;28;20032;-75
2022/04/06 11:50:09;;;;;;;7.10;3.50;;;17.20;56.90;;;;;;5073809;28;20074;-75
2022/04/06 11:52:37;;;;;;;7.75;4.10;;;17.10;56.90;;;;;;5074111;28;20036;-76
2022/04/06 11:55:03;;;;;;;7.00;3.22;;;17.00;56.00;;;;;;5055934;28;20134;-74
2022/04/06 11:57:35;;;;;;;7.47;3.55;;;16.90;55.50;;;;;;5073522;28;20540;-75
2022/04/06 12:00:06;;;;;;;8.00;3.45;;;16.70;54.20;;;;;;5073540;28;20028;-76
2022/04/06 12:02:57;;;;;;;9.93;3.72;;;16.50;55.10;;;;;;5072279;28;20036;-73
2022/04/06 12:05:24;;;;;;;9.30;3.50;;;16.30;55.70;;;;;;5073596;28;20373;-77
2022/04/06 12:08:16;;;;;;;8.05;3.75;;;16.20;54.90;;;;;;5073768;28;20052;-77
2022/04/06 12:10:52;;;;;;;6.18;3.58;;;16.10;55.30;;;;;;5071598;28;20032;-77
2022/04/06 12:13:20;;;;;;;7.93;3.47;;;16.00;56.40;;;;;;5073245;28;20029;-76
2022/04/06 12:15:48;;;;;;;8.27;3.78;;;16.00;56.40;;;;;;5073078;28;20052;-73
2022/04/06 12:18:21;;;;;;;8.00;3.95;;;15.90;56.80;;;;;;5071428;28;20047;-76
2022/04/06 12:20:48;;;;;;;6.87;3.00;;;15.90;57.20;;;;;;5073277;28;20032;-73
2022/04/06 12:23:15;;;;;;;5.18;2.92;;;15.80;57.30;;;;;;5073047;28;20042;-76
2022/04/06 12:25:41;;;;;;;7.82;3.13;;;15.70;56.40;;;;;;5073079;28;20096;-76
2022/04/06 12:28:11;;;;;;;8.20;3.85;;;15.60;56.10;;;;;;5071597;28;20092;-76
2022/04/06 12:30:50;;;;;;;8.57;3.42;;;15.50;56.30;;;;;;5072736;28;20501;-76
2022/04/06 12:33:40;;;;;;;6.95;3.35;;;15.40;56.30;;;;;;5072965;28;20017;-74
2022/04/06 12:36:12;;;;;;;6.47;2.80;;;15.40;56.80;;;;;;5072920;28;20040;-75
2022/04/06 12:38:40;;;;;;;6.78;3.13;;;15.30;57.20;;;;;;5072576;28;20036;-74
2022/04/06 12:41:07;;;;;;;9.27;3.70;;;15.20;58.10;;;;;;5072914;28;20032;-73
2022/04/06 12:43:43;;;;;;;7.72;3.35;;;15.20;58.90;;;;;;5072433;28;20056;-70
2022/04/06 12:46:09;;;;;;;12.50;4.05;;;15.20;58.60;;;;;;5072451;28;20060;-73
2022/04/06 12:48:35;;;;;;;8.52;3.45;;;15.10;59.40;;;;;;5072578;28;20020;-74
2022/04/06 12:51:21;;;;;;;7.35;3.50;;;15.10;60.60;;;;;;5072284;28;20068;-74
2022/04/06 12:53:48;;;;;;;9.50;4.15;;;15.10;60.90;;;;;;5071272;28;20029;-76